This is the latest recevied weather packets stored in our database for station/object KC8VEU. If no packets are shown the sender has not sent any weather packets the latest 10 day(s).
| Time | Temp. | Humidity | Pressure | Rain* | Wind** | Luminosity | Snow |
|---|---|---|---|---|---|---|---|
| 1777803916 | 5.56° C | 79% | 995.7 hPa | 0 mm | - | - | - |
| 1777795816 | 6.11° C | 61% | 996.7 hPa | 0 mm | - | - | - |
| 1777791616 | 7.22° C | 50% | 997.4 hPa | 0 mm | - | - | - |
| 1777779617 | 5.56° C | 51% | 999.6 hPa | 0 mm | - | - | - |
| 1777777217 | 5.56° C | 50% | 1000.2 hPa | 0 mm | - | - | - |
| 1777776917 | 5.56° C | 50% | 1000.3 hPa | 0 mm | - | - | - |
| 1777772116 | 5.56° C | 45% | 1001 hPa | 0 mm | - | - | - |
| 1777767917 | 7.78° C | 41% | 1001.5 hPa | 0 mm | - | - | - |
| 1777763137 | 12.22° C | 24% | 1002.2 hPa | 0 mm | - | - | - |
| 1777762517 | 12.78° C | 26% | 1002.3 hPa | 0 mm | - | - | - |
| 1777757716 | 11.11° C | 29% | 1002.9 hPa | 0 mm | - | - | - |
| 1777754117 | 10.56° C | 30% | 1003.8 hPa | 0 mm | - | - | - |
| 1777753517 | 10.56° C | 28% | 1004 hPa | 0 mm | - | - | - |
| 1777752317 | 10° C | 30% | 1004.3 hPa | 0 mm | - | - | - |
| 1777751117 | 10.56° C | 28% | 1004.5 hPa | 0 mm | - | - | - |
| 1777748717 | 10.56° C | 30% | 1005.2 hPa | 0 mm | - | - | - |
| 1777748117 | 11.11° C | 30% | 1005.2 hPa | 0 mm | - | - | - |
| 1777741517 | 10° C | 38% | 1006.1 hPa | 0 mm | - | - | - |
| 1777739116 | 9.44° C | 38% | 1006.5 hPa | 0 mm | - | - | - |
| 1777736717 | 8.89° C | 39% | 1006.7 hPa | 0 mm | - | - | - |
| 1777727117 | 5° C | 49% | 1007.9 hPa | 0 mm | - | - | - |
| 1777725316 | 3.89° C | 53% | 1008.1 hPa | 0 mm | - | - | - |
| 1777723556 | 1.67° C | 59% | 1008.1 hPa | 0 mm | - | - | - |
| 1777716916 | -1.11° C | 65% | 1008.1 hPa | 0 mm | - | - | - |
| 1777713016 | -1.11° C | 65% | 1008.2 hPa | 0 mm | - | - | - |
* Rain latest hour (hover to see other rain measurements)
** Current wind speed in m/s (hover to see current wind gust speed)